sensor_id;sensor_type;location;lat;lon;timestamp;temperature;humidity
11559;DHT22;5835;42.930;25.178;2023-05-07T00:01:25;10.70;99.90
11559;DHT22;5835;42.930;25.178;2023-05-07T00:03:52;10.80;99.90
11559;DHT22;5835;42.930;25.178;2023-05-07T00:06:21;10.80;99.90
11559;DHT22;5835;42.930;25.178;2023-05-07T00:08:50;10.70;99.90
11559;DHT22;5835;42.930;25.178;2023-05-07T00:11:17;10.90;99.90
11559;DHT22;5835;42.930;25.178;2023-05-07T00:13:46;11.00;99.90
11559;DHT22;5835;42.930;25.178;2023-05-07T00:16:14;10.90;99.90
11559;DHT22;5835;42.930;25.178;2023-05-07T00:18:42;10.90;99.90
11559;DHT22;5835;42.930;25.178;2023-05-07T00:21:10;10.70;99.90
11559;DHT22;5835;42.930;25.178;2023-05-07T00:23:39;10.70;99.90
11559;DHT22;5835;42.930;25.178;2023-05-07T00:26:06;10.70;99.90
11559;DHT22;5835;42.930;25.178;2023-05-07T00:28:34;10.50;99.90
11559;DHT22;5835;42.930;25.178;2023-05-07T00:31:01;10.40;99.90
11559;DHT22;5835;42.930;25.178;2023-05-07T00:33:29;10.70;99.90
11559;DHT22;5835;42.930;25.178;2023-05-07T00:35:56;10.50;99.90
11559;DHT22;5835;42.930;25.178;2023-05-07T00:38:26;10.40;99.90
11559;DHT22;5835;42.930;25.178;2023-05-07T00:40:55;10.40;99.90
11559;DHT22;5835;42.930;25.178;2023-05-07T00:43:23;10.30;99.90
11559;DHT22;5835;42.930;25.178;2023-05-07T00:45:50;10.30;99.90
11559;DHT22;5835;42.930;25.178;2023-05-07T00:48:19;10.20;99.90
11559;DHT22;5835;42.930;25.178;2023-05-07T00:50:46;10.20;99.90
11559;DHT22;5835;42.930;25.178;2023-05-07T00:53:14;10.20;99.90
11559;DHT22;5835;42.930;25.178;2023-05-07T00:55:42;10.10;99.90
11559;DHT22;5835;42.930;25.178;2023-05-07T00:58:11;10.20;99.90
11559;DHT22;5835;42.930;25.178;2023-05-07T01:00:39;10.40;99.90
11559;DHT22;5835;42.930;25.178;2023-05-07T01:03:06;10.50;99.90
11559;DHT22;5835;42.930;25.178;2023-05-07T01:05:34;10.30;99.90
11559;DHT22;5835;42.930;25.178;2023-05-07T01:08:04;10.10;99.90
11559;DHT22;5835;42.930;25.178;2023-05-07T01:10:32;10.30;99.90
11559;DHT22;5835;42.930;25.178;2023-05-07T01:13:00;10.30;99.90
11559;DHT22;5835;42.930;25.178;2023-05-07T01:15:29;10.20;99.90
11559;DHT22;5835;42.930;25.178;2023-05-07T01:17:57;10.10;99.90
11559;DHT22;5835;42.930;25.178;2023-05-07T01:20:25;10.10;99.90
11559;DHT22;5835;42.930;25.178;2023-05-07T01:22:55;10.20;99.90
11559;DHT22;5835;42.930;25.178;2023-05-07T01:25:23;10.20;99.90
11559;DHT22;5835;42.930;25.178;2023-05-07T01:27:51;10.20;99.90
11559;DHT22;5835;42.930;25.178;2023-05-07T01:30:20;10.00;99.90
11559;DHT22;5835;42.930;25.178;2023-05-07T01:32:52;9.90;99.90
11559;DHT22;5835;42.930;25.178;2023-05-07T01:35:22;9.80;99.90
11559;DHT22;5835;42.930;25.178;2023-05-07T01:37:51;9.80;99.90
11559;DHT22;5835;42.930;25.178;2023-05-07T01:40:21;9.90;99.90
11559;DHT22;5835;42.930;25.178;2023-05-07T01:42:49;10.00;99.90
11559;DHT22;5835;42.930;25.178;2023-05-07T01:45:17;9.90;99.90
11559;DHT22;5835;42.930;25.178;2023-05-07T01:47:45;9.80;99.90
11559;DHT22;5835;42.930;25.178;2023-05-07T01:50:14;9.70;99.90
11559;DHT22;5835;42.930;25.178;2023-05-07T01:52:43;9.70;99.90
11559;DHT22;5835;42.930;25.178;2023-05-07T01:55:11;9.60;99.90
11559;DHT22;5835;42.930;25.178;2023-05-07T01:57:40;9.50;99.90
11559;DHT22;5835;42.930;25.178;2023-05-07T02:00:08;9.50;99.90
11559;DHT22;5835;42.930;25.178;2023-05-07T02:02:36;9.40;99.90
11559;DHT22;5835;42.930;25.178;2023-05-07T02:05:04;9.30;99.90
11559;DHT22;5835;42.930;25.178;2023-05-07T02:07:32;9.40;99.90
11559;DHT22;5835;42.930;25.178;2023-05-07T02:09:59;9.50;99.90
11559;DHT22;5835;42.930;25.178;2023-05-07T02:12:27;9.40;99.90
11559;DHT22;5835;42.930;25.178;2023-05-07T02:14:56;9.20;99.90
11559;DHT22;5835;42.930;25.178;2023-05-07T02:17:24;9.00;99.90
11559;DHT22;5835;42.930;25.178;2023-05-07T02:19:52;8.90;99.90
11559;DHT22;5835;42.930;25.178;2023-05-07T02:22:19;8.90;99.90
11559;DHT22;5835;42.930;25.178;2023-05-07T02:24:47;9.10;99.90
11559;DHT22;5835;42.930;25.178;2023-05-07T02:27:14;9.10;99.90
11559;DHT22;5835;42.930;25.178;2023-05-07T02:29:42;9.10;99.90
11559;DHT22;5835;42.930;25.178;2023-05-07T02:32:11;9.00;99.90
11559;DHT22;5835;42.930;25.178;2023-05-07T02:34:39;8.90;99.90
11559;DHT22;5835;42.930;25.178;2023-05-07T02:37:07;8.90;99.90
11559;DHT22;5835;42.930;25.178;2023-05-07T02:39:34;8.90;99.90
11559;DHT22;5835;42.930;25.178;2023-05-07T02:42:03;9.00;99.90
11559;DHT22;5835;42.930;25.178;2023-05-07T02:44:30;8.90;99.90
11559;DHT22;5835;42.930;25.178;2023-05-07T02:46:58;8.80;99.90
11559;DHT22;5835;42.930;25.178;2023-05-07T02:49:27;8.80;99.90
11559;DHT22;5835;42.930;25.178;2023-05-07T02:51:54;8.80;99.90
11559;DHT22;5835;42.930;25.178;2023-05-07T02:54:22;8.90;99.90
11559;DHT22;5835;42.930;25.178;2023-05-07T02:56:50;9.00;99.90
11559;DHT22;5835;42.930;25.178;2023-05-07T02:59:17;9.00;99.90
11559;DHT22;5835;42.930;25.178;2023-05-07T03:01:45;8.90;99.90
11559;DHT22;5835;42.930;25.178;2023-05-07T03:04:14;8.90;99.90
11559;DHT22;5835;42.930;25.178;2023-05-07T03:06:43;8.90;99.90
11559;DHT22;5835;42.930;25.178;2023-05-07T03:09:10;8.80;99.90
11559;DHT22;5835;42.930;25.178;2023-05-07T03:11:38;8.80;99.90
11559;DHT22;5835;42.930;25.178;2023-05-07T03:14:06;8.70;99.90
11559;DHT22;5835;42.930;25.178;2023-05-07T03:16:33;8.70;99.90
11559;DHT22;5835;42.930;25.178;2023-05-07T03:19:01;8.60;99.90
11559;DHT22;5835;42.930;25.178;2023-05-07T03:21:29;8.60;99.90
11559;DHT22;5835;42.930;25.178;2023-05-07T03:23:58;8.60;99.90
11559;DHT22;5835;42.930;25.178;2023-05-07T03:26:26;8.80;99.90
11559;DHT22;5835;42.930;25.178;2023-05-07T03:28:53;8.70;99.90
11559;DHT22;5835;42.930;25.178;2023-05-07T03:31:21;8.60;99.90
11559;DHT22;5835;42.930;25.178;2023-05-07T03:33:52;8.60;99.90
11559;DHT22;5835;42.930;25.178;2023-05-07T03:36:20;8.80;99.90
11559;DHT22;5835;42.930;25.178;2023-05-07T03:38:48;9.00;99.90
11559;DHT22;5835;42.930;25.178;2023-05-07T03:41:17;8.90;99.90
11559;DHT22;5835;42.930;25.178;2023-05-07T03:43:45;8.90;99.90
11559;DHT22;5835;42.930;25.178;2023-05-07T03:46:12;8.80;99.90
11559;DHT22;5835;42.930;25.178;2023-05-07T03:48:40;8.80;99.90
11559;DHT22;5835;42.930;25.178;2023-05-07T03:51:07;8.80;99.90
11559;DHT22;5835;42.930;25.178;2023-05-07T03:53:35;8.90;99.90
11559;DHT22;5835;42.930;25.178;2023-05-07T03:56:03;9.00;99.90
11559;DHT22;5835;42.930;25.178;2023-05-07T03:58:32;9.00;99.90
11559;DHT22;5835;42.930;25.178;2023-05-07T04:01:00;9.10;99.90
11559;DHT22;5835;42.930;25.178;2023-05-07T04:03:27;9.20;99.90
11559;DHT22;5835;42.930;25.178;2023-05-07T04:05:55;9.10;99.90
11559;DHT22;5835;42.930;25.178;2023-05-07T04:08:22;9.20;99.90
11559;DHT22;5835;42.930;25.178;2023-05-07T04:10:55;9.30;99.90
11559;DHT22;5835;42.930;25.178;2023-05-07T04:13:22;9.40;99.90
11559;DHT22;5835;42.930;25.178;2023-05-07T04:15:52;9.50;99.90
11559;DHT22;5835;42.930;25.178;2023-05-07T04:18:19;9.50;99.90
11559;DHT22;5835;42.930;25.178;2023-05-07T04:20:47;9.60;99.90
11559;DHT22;5835;42.930;25.178;2023-05-07T04:23:15;9.50;99.90
11559;DHT22;5835;42.930;25.178;2023-05-07T04:25:42;9.60;99.90
11559;DHT22;5835;42.930;25.178;2023-05-07T04:28:10;9.40;99.90
11559;DHT22;5835;42.930;25.178;2023-05-07T04:30:38;9.30;99.90
11559;DHT22;5835;42.930;25.178;2023-05-07T04:33:07;9.30;99.90
11559;DHT22;5835;42.930;25.178;2023-05-07T04:35:35;9.40;99.90
11559;DHT22;5835;42.930;25.178;2023-05-07T04:38:03;9.40;99.90
11559;DHT22;5835;42.930;25.178;2023-05-07T04:40:31;9.60;99.90
11559;DHT22;5835;42.930;25.178;2023-05-07T04:42:58;9.60;99.90
11559;DHT22;5835;42.930;25.178;2023-05-07T04:45:26;9.70;99.90
11559;DHT22;5835;42.930;25.178;2023-05-07T04:47:53;9.80;99.90
11559;DHT22;5835;42.930;25.178;2023-05-07T04:50:23;9.90;99.90
11559;DHT22;5835;42.930;25.178;2023-05-07T04:52:50;10.00;99.90
11559;DHT22;5835;42.930;25.178;2023-05-07T04:55:18;10.00;99.90
11559;DHT22;5835;42.930;25.178;2023-05-07T04:57:45;10.00;99.90
11559;DHT22;5835;42.930;25.178;2023-05-07T05:00:15;10.00;99.90
11559;DHT22;5835;42.930;25.178;2023-05-07T05:02:45;10.20;99.90
11559;DHT22;5835;42.930;25.178;2023-05-07T05:05:13;10.20;99.90
11559;DHT22;5835;42.930;25.178;2023-05-07T05:07:42;10.10;99.90
11559;DHT22;5835;42.930;25.178;2023-05-07T05:10:10;10.30;99.90
11559;DHT22;5835;42.930;25.178;2023-05-07T05:12:37;10.50;99.90
11559;DHT22;5835;42.930;25.178;2023-05-07T05:15:06;10.60;99.90
11559;DHT22;5835;42.930;25.178;2023-05-07T05:17:34;10.40;99.90
11559;DHT22;5835;42.930;25.178;2023-05-07T05:20:02;10.30;99.90
11559;DHT22;5835;42.930;25.178;2023-05-07T05:22:30;10.30;99.90
11559;DHT22;5835;42.930;25.178;2023-05-07T05:24:59;10.30;99.90
11559;DHT22;5835;42.930;25.178;2023-05-07T05:27:27;10.40;99.90
11559;DHT22;5835;42.930;25.178;2023-05-07T05:40:58;10.30;99.90
11559;DHT22;5835;42.930;25.178;2023-05-07T05:43:26;11.10;99.90
11559;DHT22;5835;42.930;25.178;2023-05-07T05:45:55;11.10;99.90
11559;DHT22;5835;42.930;25.178;2023-05-07T05:48:22;11.20;99.90
11559;DHT22;5835;42.930;25.178;2023-05-07T05:50:50;11.20;99.90
11559;DHT22;5835;42.930;25.178;2023-05-07T05:53:17;11.30;99.90
11559;DHT22;5835;42.930;25.178;2023-05-07T05:55:45;11.20;99.90
11559;DHT22;5835;42.930;25.178;2023-05-07T05:58:14;11.50;99.90
11559;DHT22;5835;42.930;25.178;2023-05-07T06:00:42;11.70;99.90
11559;DHT22;5835;42.930;25.178;2023-05-07T06:03:09;11.90;99.90
11559;DHT22;5835;42.930;25.178;2023-05-07T06:05:37;12.00;99.90
11559;DHT22;5835;42.930;25.178;2023-05-07T06:08:05;12.10;99.90
11559;DHT22;5835;42.930;25.178;2023-05-07T06:10:32;12.30;99.90
11559;DHT22;5835;42.930;25.178;2023-05-07T06:13:00;12.40;99.90
11559;DHT22;5835;42.930;25.178;2023-05-07T06:15:29;12.50;99.90
11559;DHT22;5835;42.930;25.178;2023-05-07T06:17:57;12.60;99.90
11559;DHT22;5835;42.930;25.178;2023-05-07T06:20:24;12.80;99.90
11559;DHT22;5835;42.930;25.178;2023-05-07T06:22:51;12.80;99.90
11559;DHT22;5835;42.930;25.178;2023-05-07T06:25:19;12.80;99.90
11559;DHT22;5835;42.930;25.178;2023-05-07T06:27:46;12.80;99.90
11559;DHT22;5835;42.930;25.178;2023-05-07T06:30:14;13.20;99.90
11559;DHT22;5835;42.930;25.178;2023-05-07T06:32:43;13.30;99.90
11559;DHT22;5835;42.930;25.178;2023-05-07T06:35:10;13.50;99.90
11559;DHT22;5835;42.930;25.178;2023-05-07T06:37:38;13.60;99.90
11559;DHT22;5835;42.930;25.178;2023-05-07T06:40:09;13.60;99.90
11559;DHT22;5835;42.930;25.178;2023-05-07T06:42:39;13.90;99.90
11559;DHT22;5835;42.930;25.178;2023-05-07T06:45:07;13.80;99.90
11559;DHT22;5835;42.930;25.178;2023-05-07T06:47:35;13.80;99.90
11559;DHT22;5835;42.930;25.178;2023-05-07T06:50:04;14.10;99.90
11559;DHT22;5835;42.930;25.178;2023-05-07T06:52:32;14.00;99.90
11559;DHT22;5835;42.930;25.178;2023-05-07T06:55:00;14.10;99.90
11559;DHT22;5835;42.930;25.178;2023-05-07T06:57:27;14.30;99.90
11559;DHT22;5835;42.930;25.178;2023-05-07T06:59:55;14.40;99.90
11559;DHT22;5835;42.930;25.178;2023-05-07T07:02:22;14.60;99.90
11559;DHT22;5835;42.930;25.178;2023-05-07T07:04:50;14.90;99.90
11559;DHT22;5835;42.930;25.178;2023-05-07T07:07:19;15.00;99.90
11559;DHT22;5835;42.930;25.178;2023-05-07T07:09:47;15.10;34.30
11559;DHT22;5835;42.930;25.178;2023-05-07T07:12:14;15.30;99.90
11559;DHT22;5835;42.930;25.178;2023-05-07T07:14:42;15.60;72.70
11559;DHT22;5835;42.930;25.178;2023-05-07T07:17:09;15.70;1.00
11559;DHT22;5835;42.930;25.178;2023-05-07T07:19:37;15.90;1.00
11559;DHT22;5835;42.930;25.178;2023-05-07T07:22:07;16.20;13.70
11559;DHT22;5835;42.930;25.178;2023-05-07T07:24:37;16.50;1.00
11559;DHT22;5835;42.930;25.178;2023-05-07T07:27:05;16.80;1.00
11559;DHT22;5835;42.930;25.178;2023-05-07T07:29:32;16.90;99.20
11559;DHT22;5835;42.930;25.178;2023-05-07T07:32:00;16.80;99.90
11559;DHT22;5835;42.930;25.178;2023-05-07T07:34:27;17.10;1.00
11559;DHT22;5835;42.930;25.178;2023-05-07T07:36:55;17.00;99.90
11559;DHT22;5835;42.930;25.178;2023-05-07T07:39:23;17.40;1.00
11559;DHT22;5835;42.930;25.178;2023-05-07T07:41:52;17.70;38.00
11559;DHT22;5835;42.930;25.178;2023-05-07T07:44:19;17.30;1.00
11559;DHT22;5835;42.930;25.178;2023-05-07T07:46:47;17.30;1.00
11559;DHT22;5835;42.930;25.178;2023-05-07T07:49:15;17.50;99.90
11559;DHT22;5835;42.930;25.178;2023-05-07T07:51:42;17.60;99.90
11559;DHT22;5835;42.930;25.178;2023-05-07T07:54:10;18.00;1.00
11559;DHT22;5835;42.930;25.178;2023-05-07T07:56:38;18.10;1.00
11559;DHT22;5835;42.930;25.178;2023-05-07T07:59:07;18.40;99.90
11559;DHT22;5835;42.930;25.178;2023-05-07T08:01:34;18.40;99.90
11559;DHT22;5835;42.930;25.178;2023-05-07T08:04:02;18.80;99.90
11559;DHT22;5835;42.930;25.178;2023-05-07T08:06:31;18.50;81.20
11559;DHT22;5835;42.930;25.178;2023-05-07T08:08:58;18.50;79.00
11559;DHT22;5835;42.930;25.178;2023-05-07T08:11:26;18.80;80.70
11559;DHT22;5835;42.930;25.178;2023-05-07T08:13:54;18.90;98.80
11559;DHT22;5835;42.930;25.178;2023-05-07T08:16:23;19.10;56.70
11559;DHT22;5835;42.930;25.178;2023-05-07T08:18:51;19.30;99.90
11559;DHT22;5835;42.930;25.178;2023-05-07T08:21:19;19.40;30.80
11559;DHT22;5835;42.930;25.178;2023-05-07T08:23:46;19.20;22.10
11559;DHT22;5835;42.930;25.178;2023-05-07T08:26:14;19.30;24.60
11559;DHT22;5835;42.930;25.178;2023-05-07T08:28:41;19.20;1.00
11559;DHT22;5835;42.930;25.178;2023-05-07T08:31:09;19.20;1.00
11559;DHT22;5835;42.930;25.178;2023-05-07T08:33:38;19.60;15.60
11559;DHT22;5835;42.930;25.178;2023-05-07T08:36:05;20.00;1.00
11559;DHT22;5835;42.930;25.178;2023-05-07T08:38:33;20.20;1.00
11559;DHT22;5835;42.930;25.178;2023-05-07T08:41:00;20.70;1.00
11559;DHT22;5835;42.930;25.178;2023-05-07T08:43:28;20.70;1.00
11559;DHT22;5835;42.930;25.178;2023-05-07T08:45:58;21.10;1.00
11559;DHT22;5835;42.930;25.178;2023-05-07T08:48:27;21.40;1.00
11559;DHT22;5835;42.930;25.178;2023-05-07T08:50:58;21.30;1.00
11559;DHT22;5835;42.930;25.178;2023-05-07T08:53:25;21.40;1.00
11559;DHT22;5835;42.930;25.178;2023-05-07T08:55:53;21.60;1.00
11559;DHT22;5835;42.930;25.178;2023-05-07T08:58:21;21.30;1.00
11559;DHT22;5835;42.930;25.178;2023-05-07T09:00:49;21.10;1.00
11559;DHT22;5835;42.930;25.178;2023-05-07T09:03:20;21.50;1.00
11559;DHT22;5835;42.930;25.178;2023-05-07T09:05:48;21.40;1.00
11559;DHT22;5835;42.930;25.178;2023-05-07T09:08:17;21.60;1.00
11559;DHT22;5835;42.930;25.178;2023-05-07T09:10:45;21.80;1.00
11559;DHT22;5835;42.930;25.178;2023-05-07T09:13:12;22.30;1.00
11559;DHT22;5835;42.930;25.178;2023-05-07T09:15:40;22.50;1.00
11559;DHT22;5835;42.930;25.178;2023-05-07T09:18:07;22.60;1.00
11559;DHT22;5835;42.930;25.178;2023-05-07T09:20:37;22.90;1.00
11559;DHT22;5835;42.930;25.178;2023-05-07T09:23:05;23.10;1.00
11559;DHT22;5835;42.930;25.178;2023-05-07T09:25:35;23.30;1.00
11559;DHT22;5835;42.930;25.178;2023-05-07T09:28:04;23.20;1.00
11559;DHT22;5835;42.930;25.178;2023-05-07T09:30:33;23.50;1.00
11559;DHT22;5835;42.930;25.178;2023-05-07T09:33:02;22.30;1.00
11559;DHT22;5835;42.930;25.178;2023-05-07T09:35:30;22.30;1.00
11559;DHT22;5835;42.930;25.178;2023-05-07T09:37:59;22.70;1.00
11559;DHT22;5835;42.930;25.178;2023-05-07T09:40:28;23.40;1.00
11559;DHT22;5835;42.930;25.178;2023-05-07T09:43:09;23.70;1.00
11559;DHT22;5835;42.930;25.178;2023-05-07T09:45:37;23.70;1.00
11559;DHT22;5835;42.930;25.178;2023-05-07T09:48:06;23.40;1.00
11559;DHT22;5835;42.930;25.178;2023-05-07T09:50:36;24.00;1.00
11559;DHT22;5835;42.930;25.178;2023-05-07T09:53:10;24.70;1.00
11559;DHT22;5835;42.930;25.178;2023-05-07T09:55:38;24.50;1.00
11559;DHT22;5835;42.930;25.178;2023-05-07T09:58:08;24.70;1.00
11559;DHT22;5835;42.930;25.178;2023-05-07T10:00:36;24.40;1.00
11559;DHT22;5835;42.930;25.178;2023-05-07T10:03:05;23.40;1.00
11559;DHT22;5835;42.930;25.178;2023-05-07T10:05:34;24.20;1.00
11559;DHT22;5835;42.930;25.178;2023-05-07T10:08:02;24.30;1.00
11559;DHT22;5835;42.930;25.178;2023-05-07T10:10:32;24.60;1.00
11559;DHT22;5835;42.930;25.178;2023-05-07T10:13:01;24.70;1.00
11559;DHT22;5835;42.930;25.178;2023-05-07T10:15:33;25.40;1.00
11559;DHT22;5835;42.930;25.178;2023-05-07T10:18:01;25.60;1.00
11559;DHT22;5835;42.930;25.178;2023-05-07T10:20:29;25.70;1.00
11559;DHT22;5835;42.930;25.178;2023-05-07T10:22:58;25.90;1.00
11559;DHT22;5835;42.930;25.178;2023-05-07T10:25:29;25.70;1.00
11559;DHT22;5835;42.930;25.178;2023-05-07T10:28:01;25.50;1.00
11559;DHT22;5835;42.930;25.178;2023-05-07T10:30:39;25.00;1.00
11559;DHT22;5835;42.930;25.178;2023-05-07T10:33:10;25.10;1.00
11559;DHT22;5835;42.930;25.178;2023-05-07T10:35:41;25.70;1.00
11559;DHT22;5835;42.930;25.178;2023-05-07T10:38:10;25.30;1.00
11559;DHT22;5835;42.930;25.178;2023-05-07T10:40:38;25.20;1.00
11559;DHT22;5835;42.930;25.178;2023-05-07T10:43:06;25.60;1.00
11559;DHT22;5835;42.930;25.178;2023-05-07T10:45:35;26.10;1.00
11559;DHT22;5835;42.930;25.178;2023-05-07T10:48:07;25.20;1.00
11559;DHT22;5835;42.930;25.178;2023-05-07T10:50:35;24.40;1.00
11559;DHT22;5835;42.930;25.178;2023-05-07T10:53:26;23.80;1.00
11559;DHT22;5835;42.930;25.178;2023-05-07T11:02:02;24.20;1.00
11559;DHT22;5835;42.930;25.178;2023-05-07T11:04:32;24.10;99.90
11559;DHT22;5835;42.930;25.178;2023-05-07T11:07:29;24.30;99.90
11559;DHT22;5835;42.930;25.178;2023-05-07T11:10:04;25.10;1.00
11559;DHT22;5835;42.930;25.178;2023-05-07T11:12:52;25.70;1.00
11559;DHT22;5835;42.930;25.178;2023-05-07T11:15:40;24.30;99.90
11559;DHT22;5835;42.930;25.178;2023-05-07T11:18:11;23.90;99.90
11559;DHT22;5835;42.930;25.178;2023-05-07T11:20:53;24.00;99.90
11559;DHT22;5835;42.930;25.178;2023-05-07T11:26:47;24.70;1.00
11559;DHT22;5835;42.930;25.178;2023-05-07T11:29:17;25.10;99.90
11559;DHT22;5835;42.930;25.178;2023-05-07T11:31:48;25.60;1.00
11559;DHT22;5835;42.930;25.178;2023-05-07T11:34:22;25.30;99.90
11559;DHT22;5835;42.930;25.178;2023-05-07T11:36:50;25.20;99.90
11559;DHT22;5835;42.930;25.178;2023-05-07T11:39:28;24.90;99.90
11559;DHT22;5835;42.930;25.178;2023-05-07T11:41:56;25.30;99.90
11559;DHT22;5835;42.930;25.178;2023-05-07T11:44:24;25.40;99.90
11559;DHT22;5835;42.930;25.178;2023-05-07T11:46:52;26.00;99.90
11559;DHT22;5835;42.930;25.178;2023-05-07T11:49:20;25.70;99.90
11559;DHT22;5835;42.930;25.178;2023-05-07T11:51:52;25.00;99.90
11559;DHT22;5835;42.930;25.178;2023-05-07T11:54:19;24.90;99.90
11559;DHT22;5835;42.930;25.178;2023-05-07T11:56:47;24.90;99.90
11559;DHT22;5835;42.930;25.178;2023-05-07T11:59:18;25.40;99.90
11559;DHT22;5835;42.930;25.178;2023-05-07T12:01:46;25.40;99.90
11559;DHT22;5835;42.930;25.178;2023-05-07T12:04:21;26.10;99.90
11559;DHT22;5835;42.930;25.178;2023-05-07T12:06:48;26.00;99.90
11559;DHT22;5835;42.930;25.178;2023-05-07T12:09:17;27.20;99.90
11559;DHT22;5835;42.930;25.178;2023-05-07T12:11:46;27.50;99.90
11559;DHT22;5835;42.930;25.178;2023-05-07T12:14:14;27.40;99.90
11559;DHT22;5835;42.930;25.178;2023-05-07T12:16:43;26.60;99.90
11559;DHT22;5835;42.930;25.178;2023-05-07T12:19:11;26.60;99.90
11559;DHT22;5835;42.930;25.178;2023-05-07T12:21:41;26.50;99.90
11559;DHT22;5835;42.930;25.178;2023-05-07T12:24:08;26.30;99.90
11559;DHT22;5835;42.930;25.178;2023-05-07T12:26:38;26.20;99.90
11559;DHT22;5835;42.930;25.178;2023-05-07T12:29:06;26.00;99.90
11559;DHT22;5835;42.930;25.178;2023-05-07T12:31:34;26.40;99.90
11559;DHT22;5835;42.930;25.178;2023-05-07T12:34:02;26.10;99.90
11559;DHT22;5835;42.930;25.178;2023-05-07T12:36:37;27.00;99.90
11559;DHT22;5835;42.930;25.178;2023-05-07T12:39:06;27.60;99.90
11559;DHT22;5835;42.930;25.178;2023-05-07T12:44:19;28.70;99.90
11559;DHT22;5835;42.930;25.178;2023-05-07T12:46:47;28.80;99.90
11559;DHT22;5835;42.930;25.178;2023-05-07T12:49:14;28.60;99.90
11559;DHT22;5835;42.930;25.178;2023-05-07T12:51:43;26.80;99.90
11559;DHT22;5835;42.930;25.178;2023-05-07T12:54:12;26.80;99.90
11559;DHT22;5835;42.930;25.178;2023-05-07T12:56:40;27.10;99.90
11559;DHT22;5835;42.930;25.178;2023-05-07T12:59:08;27.10;99.90
11559;DHT22;5835;42.930;25.178;2023-05-07T13:01:36;26.30;99.90
11559;DHT22;5835;42.930;25.178;2023-05-07T13:04:04;26.00;99.90
11559;DHT22;5835;42.930;25.178;2023-05-07T13:06:31;25.20;99.90
11559;DHT22;5835;42.930;25.178;2023-05-07T13:08:59;25.20;99.90
11559;DHT22;5835;42.930;25.178;2023-05-07T13:11:28;25.10;99.90
11559;DHT22;5835;42.930;25.178;2023-05-07T13:13:55;24.50;99.90
11559;DHT22;5835;42.930;25.178;2023-05-07T13:16:23;25.10;99.90
11559;DHT22;5835;42.930;25.178;2023-05-07T13:18:50;25.30;99.90
11559;DHT22;5835;42.930;25.178;2023-05-07T13:21:18;25.60;99.90
11559;DHT22;5835;42.930;25.178;2023-05-07T13:23:46;25.30;99.90
11559;DHT22;5835;42.930;25.178;2023-05-07T13:26:13;25.70;99.90
11559;DHT22;5835;42.930;25.178;2023-05-07T13:28:43;25.00;99.90
11559;DHT22;5835;42.930;25.178;2023-05-07T13:31:10;26.00;99.90
11559;DHT22;5835;42.930;25.178;2023-05-07T13:33:38;27.20;99.90
11559;DHT22;5835;42.930;25.178;2023-05-07T13:36:06;26.60;99.90
11559;DHT22;5835;42.930;25.178;2023-05-07T13:38:34;25.70;99.90
11559;DHT22;5835;42.930;25.178;2023-05-07T13:41:01;25.20;99.90
11559;DHT22;5835;42.930;25.178;2023-05-07T13:43:29;25.80;99.90
11559;DHT22;5835;42.930;25.178;2023-05-07T13:45:59;25.10;99.90
11559;DHT22;5835;42.930;25.178;2023-05-07T13:48:26;24.70;99.90
11559;DHT22;5835;42.930;25.178;2023-05-07T13:50:54;25.30;99.90
11559;DHT22;5835;42.930;25.178;2023-05-07T13:53:21;25.60;99.90
11559;DHT22;5835;42.930;25.178;2023-05-07T13:55:49;25.50;99.90
11559;DHT22;5835;42.930;25.178;2023-05-07T13:58:17;25.70;99.90
11559;DHT22;5835;42.930;25.178;2023-05-07T14:00:44;25.50;99.90
11559;DHT22;5835;42.930;25.178;2023-05-07T14:03:13;25.60;99.90
11559;DHT22;5835;42.930;25.178;2023-05-07T14:05:41;25.70;99.90
11559;DHT22;5835;42.930;25.178;2023-05-07T14:08:08;26.40;99.90
11559;DHT22;5835;42.930;25.178;2023-05-07T14:10:36;26.50;99.90
11559;DHT22;5835;42.930;25.178;2023-05-07T14:13:04;26.70;99.90
11559;DHT22;5835;42.930;25.178;2023-05-07T14:15:32;26.70;99.90
11559;DHT22;5835;42.930;25.178;2023-05-07T14:18:00;27.80;99.90
11559;DHT22;5835;42.930;25.178;2023-05-07T14:20:29;28.40;99.90
11559;DHT22;5835;42.930;25.178;2023-05-07T14:22:57;29.40;99.90
11559;DHT22;5835;42.930;25.178;2023-05-07T14:25:24;30.40;99.90
11559;DHT22;5835;42.930;25.178;2023-05-07T14:27:52;30.70;99.90
11559;DHT22;5835;42.930;25.178;2023-05-07T14:30:19;29.20;99.90
11559;DHT22;5835;42.930;25.178;2023-05-07T14:32:48;28.00;99.90
11559;DHT22;5835;42.930;25.178;2023-05-07T14:35:16;27.30;99.90
11559;DHT22;5835;42.930;25.178;2023-05-07T14:37:45;27.60;99.90
11559;DHT22;5835;42.930;25.178;2023-05-07T14:40:13;27.50;99.90
11559;DHT22;5835;42.930;25.178;2023-05-07T14:42:41;27.30;99.90
11559;DHT22;5835;42.930;25.178;2023-05-07T14:45:09;27.20;99.90
11559;DHT22;5835;42.930;25.178;2023-05-07T14:47:37;27.80;99.90
11559;DHT22;5835;42.930;25.178;2023-05-07T14:50:05;28.30;99.90
11559;DHT22;5835;42.930;25.178;2023-05-07T14:52:33;27.10;99.90
11559;DHT22;5835;42.930;25.178;2023-05-07T14:55:02;27.00;99.90
11559;DHT22;5835;42.930;25.178;2023-05-07T14:57:30;27.00;99.90
11559;DHT22;5835;42.930;25.178;2023-05-07T15:00:05;26.80;99.90
11559;DHT22;5835;42.930;25.178;2023-05-07T15:02:34;26.60;99.90
11559;DHT22;5835;42.930;25.178;2023-05-07T15:05:02;26.70;99.90
11559;DHT22;5835;42.930;25.178;2023-05-07T15:07:29;26.50;99.90
11559;DHT22;5835;42.930;25.178;2023-05-07T15:09:58;26.50;99.90
11559;DHT22;5835;42.930;25.178;2023-05-07T15:12:27;26.60;99.90
11559;DHT22;5835;42.930;25.178;2023-05-07T15:14:55;26.90;99.90
11559;DHT22;5835;42.930;25.178;2023-05-07T15:17:22;26.90;99.90
11559;DHT22;5835;42.930;25.178;2023-05-07T15:19:50;27.30;99.90
11559;DHT22;5835;42.930;25.178;2023-05-07T15:22:17;28.00;99.90
11559;DHT22;5835;42.930;25.178;2023-05-07T15:24:47;27.30;99.90
11559;DHT22;5835;42.930;25.178;2023-05-07T15:27:14;27.00;99.90
11559;DHT22;5835;42.930;25.178;2023-05-07T15:29:44;26.90;99.90
11559;DHT22;5835;42.930;25.178;2023-05-07T15:32:11;26.40;99.90
11559;DHT22;5835;42.930;25.178;2023-05-07T15:34:39;25.90;99.90
11559;DHT22;5835;42.930;25.178;2023-05-07T15:37:07;25.70;99.90
11559;DHT22;5835;42.930;25.178;2023-05-07T15:39:34;25.40;99.90
11559;DHT22;5835;42.930;25.178;2023-05-07T15:42:02;25.10;99.90
11559;DHT22;5835;42.930;25.178;2023-05-07T15:44:30;24.70;99.90
11559;DHT22;5835;42.930;25.178;2023-05-07T15:47:00;24.60;99.90
11559;DHT22;5835;42.930;25.178;2023-05-07T15:49:28;24.70;99.90
11559;DHT22;5835;42.930;25.178;2023-05-07T15:51:55;24.20;99.90
11559;DHT22;5835;42.930;25.178;2023-05-07T15:54:23;24.10;99.90
11559;DHT22;5835;42.930;25.178;2023-05-07T15:56:52;24.30;99.90
11559;DHT22;5835;42.930;25.178;2023-05-07T15:59:20;24.50;99.90
11559;DHT22;5835;42.930;25.178;2023-05-07T16:01:47;23.80;99.90
11559;DHT22;5835;42.930;25.178;2023-05-07T16:04:16;23.50;99.90
11559;DHT22;5835;42.930;25.178;2023-05-07T16:06:44;23.60;99.90
11559;DHT22;5835;42.930;25.178;2023-05-07T16:09:12;23.90;99.90